createdAt,value
2022-11-10T10:45:26.289Z,26.50
2022-11-10T10:50:33.527Z,26.80
2022-11-10T10:56:02.465Z,25.80
2022-11-10T11:01:22.142Z,27.30
2022-11-10T11:06:34.801Z,28.60
2022-11-10T11:11:40.333Z,23.50
2022-11-10T11:17:13.344Z,24.60
2022-11-10T11:23:07.896Z,23.00
2022-11-10T11:28:37.640Z,20.70
2022-11-10T11:34:02.025Z,23.90
2022-11-10T11:39:18.637Z,21.40
2022-11-10T11:44:56.177Z,20.50
2022-11-10T11:50:24.560Z,19.70
2022-11-10T11:55:54.289Z,20.50
2022-11-10T12:01:22.018Z,18.40
2022-11-10T12:06:43.350Z,20.40
2022-11-10T12:12:03.136Z,18.80
2022-11-10T12:17:41.364Z,17.30
2022-11-10T12:22:59.899Z,17.40
2022-11-10T12:28:22.141Z,15.50
2022-11-10T12:33:35.810Z,16.40
2022-11-10T12:38:59.479Z,14.10
2022-11-10T12:44:22.711Z,16.90
2022-11-10T12:49:37.550Z,14.90
2022-11-10T12:54:40.864Z,17.30
2022-11-10T13:00:00.236Z,15.30
2022-11-10T13:05:10.415Z,15.10
2022-11-10T13:10:18.881Z,17.40
2022-11-10T13:20:58.623Z,16.70
2022-11-10T13:26:05.773Z,20.40
2022-11-10T13:31:26.828Z,18.70
2022-11-10T13:36:43.380Z,18.40
2022-11-10T13:42:04.054Z,15.50
2022-11-10T13:47:09.862Z,14.70
2022-11-10T13:52:45.723Z,14.50
2022-11-10T13:58:07.855Z,16.50
2022-11-10T14:03:49.617Z,15.10
2022-11-10T14:09:20.066Z,15.30
2022-11-10T14:14:39.702Z,11.10
2022-11-10T14:19:43.701Z,17.40
2022-11-10T14:25:22.293Z,13.90
2022-11-10T14:30:29.592Z,15.20
2022-11-10T14:36:12.445Z,16.50
2022-11-10T14:41:22.190Z,14.30
2022-11-10T14:46:25.618Z,13.40
2022-11-10T14:51:45.855Z,15.60
2022-11-10T14:56:51.503Z,14.90
2022-11-10T15:01:57.250Z,17.10
2022-11-10T15:07:00.412Z,17.60
2022-11-10T15:12:03.268Z,16.40
2022-11-10T15:17:14.720Z,14.40
2022-11-10T15:22:35.063Z,18.60
2022-11-10T15:27:38.882Z,17.90
2022-11-10T15:32:42.574Z,19.10
2022-11-10T15:38:04.778Z,19.30
2022-11-10T15:43:22.295Z,15.40
2022-11-10T15:48:26.727Z,19.00
2022-11-10T15:53:34.779Z,17.20
2022-11-10T15:58:37.630Z,17.60
2022-11-10T16:04:27.050Z,15.60
2022-11-10T16:14:38.474Z,16.10
2022-11-10T16:19:41.586Z,17.60
2022-11-10T16:24:50.521Z,20.00
2022-11-10T16:29:56.259Z,17.00
2022-11-10T16:34:59.187Z,17.50
2022-11-10T16:40:06.610Z,14.00
2022-11-10T16:45:23.719Z,17.00
2022-11-10T16:50:31.293Z,12.90
2022-11-10T16:55:34.142Z,16.00
2022-11-10T17:00:37.649Z,14.10
2022-11-10T17:05:43.081Z,14.80
2022-11-10T17:10:45.995Z,14.50
2022-11-10T17:15:48.930Z,15.80
2022-11-10T17:20:52.577Z,17.60
2022-11-10T17:25:55.538Z,17.10
2022-11-10T17:30:58.486Z,15.70
2022-11-10T17:36:01.586Z,15.80
2022-11-10T17:41:07.704Z,16.40
2022-11-10T17:46:10.984Z,15.40
2022-11-10T17:51:20.601Z,16.00
2022-11-10T17:56:23.454Z,18.20
2022-11-10T18:01:28.326Z,15.50
2022-11-10T18:06:32.419Z,15.40
2022-11-10T18:11:35.607Z,16.10
2022-11-10T18:16:44.044Z,14.10
2022-11-10T18:21:46.969Z,15.10
2022-11-10T18:26:49.809Z,12.80
2022-11-10T18:31:52.676Z,13.50
2022-11-10T18:36:56.138Z,14.00
2022-11-10T18:41:58.951Z,18.60
2022-11-10T18:47:01.837Z,18.30
2022-11-10T18:52:04.975Z,19.70
2022-11-10T18:57:12.984Z,16.20
2022-11-10T19:02:15.879Z,16.40
2022-11-10T19:07:19.140Z,18.60
2022-11-10T19:12:59.891Z,18.20
2022-11-10T19:18:02.695Z,20.90
2022-11-10T19:23:05.690Z,16.10
2022-11-10T19:28:11.571Z,17.60
2022-11-10T19:33:14.378Z,18.80
2022-11-10T19:38:17.911Z,19.90
2022-11-10T19:43:20.937Z,21.40
2022-11-10T19:48:24.047Z,19.50
2022-11-10T19:53:29.380Z,22.60
2022-11-10T19:58:32.594Z,13.40
2022-11-10T20:03:35.561Z,17.30
2022-11-10T20:08:39.792Z,17.50
2022-11-10T20:13:45.950Z,24.30
2022-11-10T20:18:49.183Z,24.60
2022-11-10T20:23:54.781Z,28.30
2022-11-10T20:28:57.727Z,39.00
2022-11-10T20:34:02.671Z,27.60
2022-11-10T20:39:05.922Z,28.60
2022-11-10T20:44:08.700Z,24.20
2022-11-10T20:49:12.109Z,22.80
2022-11-10T20:54:15.127Z,20.00
2022-11-10T20:59:17.991Z,19.10
2022-11-10T21:04:23.286Z,23.70
2022-11-10T21:09:27.794Z,25.30
2022-11-10T21:14:30.595Z,24.10
2022-11-10T21:19:35.035Z,19.30
2022-11-10T21:24:37.920Z,25.20
2022-11-10T21:29:42.393Z,25.20
2022-11-10T21:34:47.220Z,24.90
2022-11-10T21:39:50.086Z,26.80
2022-11-10T21:44:52.830Z,24.10
2022-11-10T21:49:55.625Z,23.00
2022-11-10T21:54:59.600Z,23.80
2022-11-10T22:00:02.536Z,23.30
2022-11-10T22:05:06.104Z,24.20
2022-11-10T22:10:32.607Z,27.70
2022-11-10T22:16:01.660Z,30.80
2022-11-10T22:21:05.236Z,40.20
2022-11-10T22:26:08.081Z,31.30
2022-11-10T22:31:11.899Z,27.30
2022-11-10T22:36:16.340Z,58.40
2022-11-10T22:41:37.783Z,46.80
2022-11-10T22:46:48.078Z,39.30
2022-11-10T22:51:54.587Z,32.00
2022-11-10T22:56:57.509Z,24.60
2022-11-10T23:02:00.471Z,22.50
2022-11-10T23:07:03.432Z,18.90
2022-11-10T23:12:06.296Z,24.30
2022-11-10T23:17:09.362Z,23.70
2022-11-10T23:22:12.644Z,22.10
2022-11-10T23:27:15.466Z,25.60
2022-11-10T23:32:18.366Z,21.20
2022-11-10T23:37:21.383Z,20.00
2022-11-10T23:42:27.679Z,22.00
2022-11-10T23:47:30.658Z,21.00
2022-11-10T23:52:34.223Z,25.50
2022-11-10T23:57:36.957Z,21.50
